Flight Track Log - Related Links

Times and Time Zones

All times are in EDT time to prevent confusion due to time zone crossing. See the N860H flight status page for this flight to view local times or setup timezone preferences in your user account.


Time Position Orientation Groundspeed Altitude Reporting Facility
EDT Latitude Longitude Course Direction KTS MPH feet Rate Location/Type
Thu 03:30:47 PM 41.5750 -81.4686 89° East 148 170 1,700  Level Cleveland Center
Thu 03:31:48 PM 41.5756 -81.4214 89° East 172 198 3,100 1,266 Climbing Cleveland Center
Thu 03:32:55 PM 41.5192 -81.4094 171° South 185 213 4,400 891 Climbing Cleveland Center
Thu 03:33:56 PM 41.4672 -81.3978 170° South 190 219 5,000 344 Climbing Cleveland Center
Thu 03:34:57 PM 41.4131 -81.3889 173° South 193 222 5,100 496 Climbing Cleveland Center
Thu 03:35:57 PM 41.3794 -81.4383 228° Southwest 213 245 6,000 1,140 Climbing Cleveland Center
Thu 03:36:58 PM 41.3642 -81.5100 254° West 201 231 7,400 1,034 Climbing Cleveland Center
Thu 03:37:53 PM 41.3553 -81.5761 260° West 196 226 8,000 569 Climbing Cleveland Center
Thu 03:38:54 PM 41.3400 -81.6561 256° West 229 264 8,500 934 Climbing Cleveland Center
Thu 03:39:55 PM 41.3289 -81.7333 259° West 208 239 9,900 1,190 Climbing Cleveland Center
Thu 03:40:55 PM 41.2803 -81.7822 217° Southwest 220 253 10,900 893 Climbing Cleveland Center
Thu 03:41:56 PM 41.2256 -81.8364 217° Southwest 237 273 11,700 590 Climbing Cleveland Center
Thu 03:42:57 PM 41.1667 -81.8822 210° Southwest 243 280 12,100 135 Climbing Cleveland Center
Thu 03:44:09 PM 41.0953 -81.9333 208° Southwest 269 310 12,000 -45 Descending Cleveland Center
Thu 03:45:09 PM 41.0342 -81.9814 211° Southwest 269 310 12,000  Level Cleveland Center
Thu 03:46:09 PM 40.9689 -82.0322 210° Southwest 269 310 12,000  Level Cleveland Center
Thu 03:47:09 PM 40.9100 -82.0778 210° Southwest 264 304 12,000 -50 Level Cleveland Center
Thu 03:48:09 PM 40.8550 -82.1258 213° Southwest 264 304 11,900  Descending Cleveland Center
Thu 03:48:51 PM 40.8069 -82.1667 213° Southwest 258 297 12,000 58 Climbing Indianapolis Center
Thu 03:49:53 PM 40.7481 -82.2197 214° Southwest 254 292 12,000  Level Indianapolis Center
Thu 03:50:55 PM 40.6928 -82.2739 217° Southwest 246 283 12,000  Level Indianapolis Center
Thu 03:51:57 PM 40.6414 -82.3231 216° Southwest 227 261 12,000  Level Indianapolis Center
Thu 03:52:59 PM 40.5933 -82.3706 217° Southwest 216 249 12,000  Level Indianapolis Center
Thu 03:54:01 PM 40.5439 -82.4203 217° Southwest 220 253 12,000  Level Indianapolis Center
Thu 03:54:56 PM 40.4936 -82.4775 221° Southwest 227 261 12,000 -435 Level Indianapolis Center
Thu 03:56:05 PM 40.4422 -82.5447 225° Southwest 234 269 11,100 -1,053 Descending Indianapolis Center
Thu 03:57:07 PM 40.3936 -82.6003 221° Southwest 229 264 9,700 -1,548 Descending Indianapolis Center
Thu 03:58:09 PM 40.3464 -82.6600 224° Southwest 234 269 7,900 -1,452 Descending Indianapolis Center
Thu 03:59:11 PM 40.3317 -82.7358 256° West 212 244 6,700 -1,161 Descending Indianapolis Center
Thu 04:00:13 PM 40.3183 -82.8092 257° West 206 237 5,500 -1,146 Descending Indianapolis Center
Thu 04:02:09 PM 40.2017 -82.8433 193° South 215 247 3,300 -824 Descending Indianapolis Center
Thu 04:03:15 PM 40.1397 -82.8553 188° South 208 239 3,000 -149 Descending Indianapolis Center
Thu 04:04:10 PM 40.1031 -82.8850 212° Southwest 167 192 3,000 -103 Level Indianapolis Center
Thu 04:05:12 PM 40.0817 -82.9336 240° Southwest 140 161 2,800 -492 Descending Indianapolis Center
Thu 04:06:12 PM 40.0789 -82.9850 266° West 131 151 2,000 -694 Descending Indianapolis Center
Thu 04:07:13 PM 40.0792 -83.0289 270° West 117 135 1,400 -348 Descending Indianapolis Center
Thu 04:08:30 PM 40.0772 -83.0792 267° West 130 150 1,200 -156 Descending Indianapolis Center
Thu 04:10:00 PM 40.0798 -83.0732 138° Southeast  Level Estimated

Login

Don't have an account? Register now (free) for customized features, flight alerts, and more!